Terminal Aerodrome Forecast
Issued by NWS

Home | Current Version | Previous Version | Text Only | Print | Product List | Glossary On
Versions: 1 2 3 4 5 6 7 8 9 10 11 12 13
000
FTUS42 KGSP 051501 AAA
TAFAND
TAF AMD
KAND 051501Z 0515/0612 06011KT P6SM SCT025
      TEMPO 0515/0519 BKN025
     FM051900 06007KT P6SM BKN035
      TEMPO 0520/0524 4SM TSRA BKN025CB
     FM060000 06005KT P6SM BKN050
     FM060800 05006KT P6SM OVC030
     FM061000 05007KT P6SM OVC015=

USA.gov is the U.S. government's official web portal to all federal, state and local government web resources and services.